createdAt,value
2023-04-09T00:01:15.633Z,23.30
2023-04-09T00:06:18.510Z,23.30
2023-04-09T00:11:21.737Z,23.30
2023-04-09T00:16:26.096Z,23.20
2023-04-09T00:21:28.981Z,23.20
2023-04-09T00:26:32.486Z,23.20
2023-04-09T00:31:36.712Z,23.20
2023-04-09T00:36:39.597Z,23.10
2023-04-09T00:41:42.471Z,23.10
2023-04-09T00:46:46.662Z,23.10
2023-04-09T00:51:49.892Z,23.10
2023-04-09T00:56:53.197Z,23.00
2023-04-09T01:01:57.573Z,23.00
2023-04-09T01:07:06.475Z,22.90
2023-04-09T01:12:16.099Z,22.90
2023-04-09T01:17:26.071Z,22.80
2023-04-09T01:22:37.893Z,22.80
2023-04-09T01:27:57.567Z,22.80
2023-04-09T01:33:03.189Z,22.80
2023-04-09T01:38:06.487Z,22.80
2023-04-09T01:43:10.136Z,22.70
2023-04-09T01:48:16.008Z,22.80
2023-04-09T01:53:19.300Z,22.70
2023-04-09T01:58:22.153Z,22.70
2023-04-09T02:03:29.488Z,22.70
2023-04-09T02:08:34.444Z,22.70
2023-04-09T02:13:41.348Z,22.70
2023-04-09T02:18:45.630Z,22.70
2023-04-09T02:23:48.472Z,22.60
2023-04-09T02:28:51.878Z,22.50
2023-04-09T02:33:56.225Z,22.60
2023-04-09T02:38:59.120Z,22.50
2023-04-09T02:44:01.993Z,22.50
2023-04-09T02:49:06.323Z,22.50
2023-04-09T02:54:09.178Z,22.40
2023-04-09T02:59:12.012Z,22.40
2023-04-09T03:04:16.339Z,22.40
2023-04-09T03:09:19.290Z,22.40
2023-04-09T03:14:22.198Z,22.30
2023-04-09T03:19:27.126Z,22.30
2023-04-09T03:24:30.019Z,22.30
2023-04-09T03:29:32.923Z,22.30
2023-04-09T03:34:37.093Z,22.30
2023-04-09T03:39:39.954Z,22.30
2023-04-09T03:44:42.794Z,22.20
2023-04-09T03:49:47.002Z,22.20
2023-04-09T03:54:49.935Z,22.20
2023-04-09T03:59:52.742Z,22.20
2023-04-09T04:04:57.148Z,22.10
2023-04-09T04:10:00.000Z,22.20
2023-04-09T04:15:03.077Z,22.20
2023-04-09T04:20:08.462Z,22.10
2023-04-09T04:25:11.916Z,22.10
2023-04-09T04:30:14.731Z,22.20
2023-04-09T04:35:19.149Z,22.30
2023-04-09T04:40:22.140Z,22.40
2023-04-09T04:45:24.966Z,22.40
2023-04-09T04:50:29.119Z,22.30
2023-04-09T04:55:31.964Z,22.30
2023-04-09T05:00:34.791Z,22.30
2023-04-09T05:05:38.984Z,22.30
2023-04-09T05:10:43.069Z,22.30
2023-04-09T05:15:45.918Z,22.30
2023-04-09T05:20:50.090Z,22.30
2023-04-09T05:25:52.933Z,22.40
2023-04-09T05:30:55.791Z,22.40
2023-04-09T05:35:59.998Z,22.50
2023-04-09T05:41:02.837Z,22.60
2023-04-09T05:46:06.043Z,22.70
2023-04-09T05:51:10.611Z,22.80
2023-04-09T05:56:17.151Z,22.80
2023-04-09T06:01:20.013Z,22.90
2023-04-09T06:06:24.157Z,23.00
2023-04-09T06:11:27.092Z,23.00
2023-04-09T06:16:29.940Z,23.10
2023-04-09T06:21:34.234Z,23.20
2023-04-09T06:26:37.106Z,23.30
2023-04-09T06:31:40.083Z,23.40
2023-04-09T06:36:44.578Z,23.60
2023-04-09T06:41:47.854Z,23.60
2023-04-09T06:46:50.760Z,23.70
2023-04-09T06:51:55.047Z,23.80
2023-04-09T06:56:57.941Z,23.80
2023-04-09T07:02:01.274Z,23.80
2023-04-09T07:07:05.470Z,23.80
2023-04-09T07:12:08.386Z,23.80
2023-04-09T07:17:11.176Z,23.80
2023-04-09T07:22:15.425Z,23.90
2023-04-09T07:27:18.621Z,23.90
2023-04-09T07:32:21.455Z,23.90
2023-04-09T07:37:26.090Z,23.90
2023-04-09T07:42:29.088Z,23.90
2023-04-09T07:47:32.562Z,23.90
2023-04-09T07:52:37.022Z,23.90
2023-04-09T07:57:39.906Z,23.80
2023-04-09T08:02:42.792Z,23.70
2023-04-09T08:07:47.152Z,23.60
2023-04-09T08:12:50.594Z,23.60
2023-04-09T08:17:53.428Z,23.50
2023-04-09T08:22:57.619Z,23.40
2023-04-09T08:28:00.494Z,23.30
2023-04-09T08:33:03.529Z,23.30
2023-04-09T08:38:07.740Z,23.30
2023-04-09T08:43:15.624Z,23.30
2023-04-09T08:48:19.835Z,23.20
2023-04-09T08:53:24.558Z,23.20
2023-04-09T08:58:27.669Z,23.20
2023-04-09T09:03:30.568Z,23.20
2023-04-09T09:08:34.881Z,23.20
2023-04-09T09:13:37.845Z,23.10
2023-04-09T09:18:42.240Z,23.10
2023-04-09T09:23:48.381Z,23.10
2023-04-09T09:28:52.081Z,23.00
2023-04-09T09:33:56.430Z,23.00
2023-04-09T09:39:03.815Z,23.00
2023-04-09T09:44:08.033Z,23.00
2023-04-09T09:49:10.968Z,22.90
2023-04-09T09:54:18.097Z,22.90
2023-04-09T09:59:22.598Z,22.90
2023-04-09T10:04:28.981Z,22.90
2023-04-09T10:09:34.297Z,22.90
2023-04-09T10:14:38.327Z,22.90
2023-04-09T10:19:55.696Z,22.90
2023-04-09T10:25:00.566Z,22.80
2023-04-09T10:30:05.290Z,22.80
2023-04-09T10:35:11.116Z,22.80
2023-04-09T10:40:20.467Z,22.80
2023-04-09T10:45:23.306Z,22.80
2023-04-09T10:50:27.890Z,22.80
2023-04-09T10:55:39.382Z,22.80
2023-04-09T11:00:43.894Z,22.70
2023-04-09T11:05:49.690Z,22.80
2023-04-09T11:10:58.259Z,22.70
2023-04-09T11:16:04.077Z,22.70
2023-04-09T11:21:09.562Z,22.70
2023-04-09T11:26:13.791Z,22.70
2023-04-09T11:31:16.676Z,22.70
2023-04-09T11:36:19.699Z,22.70
2023-04-09T11:41:35.371Z,22.70
2023-04-09T11:46:39.964Z,22.70
2023-04-09T11:51:43.251Z,22.70
2023-04-09T11:56:55.632Z,22.70
2023-04-09T12:01:59.509Z,22.70
2023-04-09T12:07:02.418Z,22.80
2023-04-09T12:12:11.202Z,22.80
2023-04-09T12:17:14.058Z,22.70
2023-04-09T12:22:16.925Z,22.80
2023-04-09T12:27:21.101Z,22.80
2023-04-09T12:32:24.004Z,22.80
2023-04-09T12:37:28.665Z,22.80
2023-04-09T12:42:32.821Z,22.80
2023-04-09T12:47:35.717Z,22.80
2023-04-09T12:52:39.258Z,22.80
2023-04-09T12:57:45.731Z,22.80
2023-04-09T13:02:48.763Z,22.80
2023-04-09T13:07:51.625Z,22.80
2023-04-09T13:12:56.144Z,22.80
2023-04-09T13:17:58.938Z,22.70
2023-04-09T13:23:01.887Z,22.70
2023-04-09T13:28:06.464Z,22.70
2023-04-09T13:33:09.303Z,22.60
2023-04-09T13:38:12.145Z,22.60
2023-04-09T13:43:16.344Z,22.60
2023-04-09T13:48:19.153Z,22.60
2023-04-09T13:53:24.196Z,22.50
2023-04-09T13:58:28.358Z,22.50
2023-04-09T14:03:31.494Z,22.50
2023-04-09T14:08:34.363Z,22.50
2023-04-09T14:13:38.540Z,22.50
2023-04-09T14:18:41.687Z,22.50
2023-04-09T14:23:44.534Z,22.70
2023-04-09T14:28:48.729Z,22.70
2023-04-09T14:33:51.602Z,22.70
2023-04-09T14:38:57.420Z,22.70
2023-04-09T14:44:02.047Z,22.70
2023-04-09T14:49:05.191Z,22.60
2023-04-09T14:54:08.044Z,22.60
2023-04-09T14:59:12.269Z,22.70
2023-04-09T15:04:15.691Z,22.60
2023-04-09T15:09:18.660Z,22.60
2023-04-09T15:14:23.783Z,22.50
2023-04-09T15:19:26.668Z,22.50
2023-04-09T15:24:29.604Z,22.60
2023-04-09T15:29:34.434Z,22.60
2023-04-09T15:34:37.276Z,22.50
2023-04-09T15:39:40.482Z,22.50
2023-04-09T15:44:44.662Z,22.50
2023-04-09T15:49:47.546Z,22.50
2023-04-09T15:54:50.346Z,22.40
2023-04-09T15:59:55.124Z,22.50
2023-04-09T16:04:57.950Z,22.50
2023-04-09T16:10:01.690Z,22.60
2023-04-09T16:15:06.706Z,22.50
2023-04-09T16:20:10.036Z,22.50
2023-04-09T16:25:12.902Z,22.50
2023-04-09T16:30:17.075Z,22.50
2023-04-09T16:35:20.279Z,22.50
2023-04-09T16:40:24.403Z,22.50
2023-04-09T16:45:28.666Z,22.50
2023-04-09T16:50:31.473Z,22.40
2023-04-09T16:55:35.031Z,22.40
2023-04-09T17:00:40.031Z,22.40
2023-04-09T17:05:45.276Z,22.30
2023-04-09T17:10:48.130Z,22.30
2023-04-09T17:15:53.160Z,22.30
2023-04-09T17:20:56.006Z,22.30
2023-04-09T17:26:00.545Z,22.30
2023-04-09T17:31:04.979Z,22.20
2023-04-09T17:36:08.374Z,22.20
2023-04-09T17:41:11.253Z,22.30
2023-04-09T17:46:16.827Z,22.30
2023-04-09T17:51:20.702Z,22.30
2023-04-09T17:56:23.740Z,22.20
2023-04-09T18:01:27.994Z,22.10
2023-04-09T18:06:31.449Z,22.10
2023-04-09T18:11:34.360Z,22.10
2023-04-09T18:16:39.387Z,22.00
2023-04-09T18:21:42.330Z,22.00
2023-04-09T18:26:45.224Z,22.00
2023-04-09T18:31:49.503Z,21.90
2023-04-09T18:36:53.222Z,21.90
2023-04-09T18:41:57.059Z,21.90
2023-04-09T18:47:02.626Z,21.90
2023-04-09T18:52:06.364Z,22.00
2023-04-09T18:57:09.186Z,22.00
2023-04-09T19:02:13.504Z,22.00
2023-04-09T19:07:17.061Z,21.90
2023-04-09T19:12:20.363Z,21.90
2023-04-09T19:17:24.623Z,21.80
2023-04-09T19:22:28.106Z,21.80
2023-04-09T19:27:30.930Z,21.80
2023-04-09T19:32:35.181Z,21.70
2023-04-09T19:37:38.161Z,21.70
2023-04-09T19:42:41.194Z,21.70
2023-04-09T19:47:45.577Z,21.70
2023-04-09T19:52:48.423Z,21.70
2023-04-09T19:57:51.734Z,21.60
2023-04-09T20:02:57.070Z,21.60
2023-04-09T20:08:00.598Z,21.60
2023-04-09T20:13:03.830Z,21.60
2023-04-09T20:18:08.198Z,21.50
2023-04-09T20:23:11.284Z,21.60
2023-04-09T20:28:14.129Z,21.70
2023-04-09T20:33:18.964Z,21.80
2023-04-09T20:38:22.323Z,21.80
2023-04-09T20:43:25.265Z,21.80
2023-04-09T20:48:32.388Z,21.80
2023-04-09T20:53:35.218Z,21.80
2023-04-09T20:58:38.884Z,21.80
2023-04-09T21:03:43.425Z,21.70
2023-04-09T21:08:46.286Z,21.70
2023-04-09T21:13:54.392Z,21.60
2023-04-09T21:18:59.021Z,21.60
2023-04-09T21:24:01.888Z,21.60
2023-04-09T21:29:04.726Z,21.50
2023-04-09T21:34:08.907Z,21.50
2023-04-09T21:39:11.749Z,21.50
2023-04-09T21:44:14.586Z,21.50
2023-04-09T21:49:18.764Z,21.50
2023-04-09T21:54:21.584Z,21.50
2023-04-09T21:59:24.388Z,21.50
2023-04-09T22:04:28.645Z,21.50
2023-04-09T22:09:31.989Z,21.50
2023-04-09T22:14:34.862Z,21.50
2023-04-09T22:19:39.140Z,21.40
2023-04-09T22:24:42.127Z,21.40
2023-04-09T22:29:45.025Z,21.40
2023-04-09T22:34:49.216Z,21.40
2023-04-09T22:39:52.043Z,21.40
2023-04-09T22:44:54.994Z,21.40
2023-04-09T22:49:59.160Z,21.40
2023-04-09T22:55:02.080Z,21.30
2023-04-09T23:00:06.026Z,21.40
2023-04-09T23:05:11.224Z,21.40
2023-04-09T23:10:16.130Z,21.40
2023-04-09T23:15:19.473Z,21.30
2023-04-09T23:20:24.292Z,21.30
2023-04-09T23:25:27.134Z,21.30
2023-04-09T23:30:30.000Z,21.20
2023-04-09T23:35:34.212Z,21.20
2023-04-09T23:40:37.075Z,21.20
2023-04-09T23:45:39.896Z,21.30
2023-04-09T23:50:44.158Z,21.30
2023-04-09T23:55:47.784Z,21.30
